Аэропорт: Рощино. Тюмень

ICAO: USTR

METAR:
2019/03/26 13:00
USTR 261300Z 24006MPS 9999 BKN041CB 03/M03 Q1010 R21/CLRD65 NOSIG RMK QFE748/0997
METAR:
2019/03/26 12:00
TAF USTR 261100Z 2612/2712 24009MPS 5000 -SHSNRA BKN020CB 
      TEMPO 2612/2618 26015MPS 0400 +SHSNRA BLSN VV003 
     FM261800 22006MPS 9999 NSC